Data for 06/06/2009

Time Sea-Level Adjusted Pressure Absolute Pressure Temperature Relative Humidity Dew Point   
(mb) (inHg) (mb) (inHg) (C) (F) (%) (C) (F)
00:05 1010 29.83 839 24.78 6.5 43.6 91 5.2 41.3
00:10 1010 29.83 839 24.78 6.5 43.7 91 5.1 41.2
00:15 1010 29.83 839 24.78 6.6 43.8 90 5.1 41.2
00:20 1010 29.83 839 24.78 6.7 44.1 88 4.9 40.9
00:25 1010 29.83 839 24.78 6.9 44.4 88 5.1 41.1
00:30 1010 29.83 839 24.78 6.9 44.4 88 5 40.9
00:35 1010 29.83 839 24.78 6.8 44.3 87 4.8 40.7
00:40 1010 29.83 839 24.78 6.8 44.2 87 4.7 40.5
00:45 1010 29.83 839 24.78 6.7 44.1 86 4.6 40.3
00:50 1010 29.83 839 24.78 6.7 44.1 87 4.6 40.3
00:55 1010 29.83 839 24.78 6.7 44 86 4.5 40.2
01:00 1009 29.8 839 24.78 6.7 44 87 4.7 40.4
01:05 1009 29.8 839 24.78 6.6 43.9 87 4.5 40.2
01:10 1009 29.8 839 24.78 6.6 43.9 88 4.7 40.5
01:15 1009 29.8 839 24.78 6.5 43.7 89 4.8 40.6
01:20 1010 29.83 839 24.78 6.5 43.7 89 4.8 40.6
01:25 1010 29.83 839 24.78 6.5 43.7 88 4.7 40.5
01:30 1010 29.83 839 24.78 6.6 43.9 88 4.7 40.5
01:35 1010 29.83 839 24.78 6.7 44 88 4.8 40.7
01:40 1009 29.8 839 24.78 6.6 43.9 89 4.9 40.8
01:45 1009 29.8 839 24.78 6.6 43.9 88 4.8 40.6
01:50 1009 29.8 839 24.78 6.7 44 88 4.9 40.8
01:55 1009 29.8 839 24.78 6.6 43.9 89 4.9 40.7
02:00 1009 29.8 839 24.78 6.6 43.8 89 4.9 40.8
02:05 1009 29.8 838 24.75 6.5 43.7 89 4.8 40.7
02:10 1009 29.8 838 24.75 6.6 43.8 89 4.9 40.8
02:15 1009 29.8 838 24.75 6.6 43.9 88 4.8 40.6
02:20 1009 29.8 838 24.75 6.6 43.9 88 4.7 40.5
02:25 1009 29.8 838 24.75 6.6 43.9 88 4.8 40.6
02:30 1009 29.8 838 24.75 6.6 43.8 89 4.9 40.8
02:35 1009 29.8 838 24.75 6.4 43.6 89 4.8 40.6
02:40 1009 29.8 838 24.75 6.4 43.6 89 4.8 40.7
02:45 1009 29.8 838 24.75 6.4 43.5 90 4.8 40.6
02:50 1009 29.8 838 24.75 6.3 43.4 90 4.8 40.7
02:55 1009 29.8 838 24.75 6.3 43.3 90 4.8 40.7
03:00 1009 29.8 838 24.75 6.3 43.3 90 4.7 40.5
03:05 1009 29.8 838 24.75 6.3 43.3 90 4.7 40.5
03:10 1009 29.8 838 24.75 6.3 43.4 90 4.7 40.5
03:15 1009 29.8 838 24.75 6.3 43.4 89 4.7 40.4
03:20 1009 29.8 838 24.75 6.4 43.5 88 4.5 40.1
03:25 1009 29.8 838 24.75 6.4 43.5 87 4.4 39.9
03:30 1009 29.8 838 24.75 6.4 43.5 87 4.4 40
03:35 1009 29.8 838 24.75 6.3 43.3 87 4.3 39.8
03:40 1009 29.8 838 24.75 6.3 43.3 87 4.4 39.8
03:45 1009 29.8 838 24.75 6.2 43.2 88 4.3 39.8
03:50 1009 29.8 838 24.75 6.2 43.1 88 4.4 39.9
03:55 1009 29.8 838 24.75 6.2 43.1 88 4.4 39.9
04:00 1009 29.8 838 24.75 6.2 43.1 89 4.5 40.1
04:05 1009 29.8 838 24.75 6.2 43.2 89 4.5 40.2
04:10 1009 29.8 838 24.75 6.2 43.1 89 4.6 40.3
04:15 1009 29.8 838 24.75 6.2 43.1 89 4.6 40.2
04:20 1009 29.8 838 24.75 6.1 43.1 89 4.5 40.2
04:25 1009 29.8 838 24.75 6.1 43 90 4.5 40.2
04:30 1009 29.8 838 24.75 6.1 42.9 90 4.6 40.2
04:35 1009 29.8 838 24.75 6 42.9 90 4.5 40.1
04:40 1009 29.8 838 24.75 6 42.9 90 4.5 40
04:45 1009 29.8 838 24.75 6.1 43 90 4.5 40.2
04:50 1009 29.8 838 24.75 6.1 42.9 89 4.5 40
04:55 1009 29.8 838 24.75 6.1 43 89 4.4 40
05:00 1009 29.8 838 24.75 6.1 43 88 4.4 39.8
05:05 1009 29.8 838 24.75 6.1 43 89 4.4 39.9
05:10 1009 29.8 838 24.75 6.1 43 89 4.5 40
05:15 1009 29.8 838 24.75 6.1 42.9 90 4.5 40.1
05:20 1009 29.8 838 24.75 6 42.9 89 4.3 39.7
05:25 1009 29.8 838 24.75 6.1 42.9 88 4.3 39.7
05:30 1009 29.8 838 24.75 6.1 43 87 4.2 39.5
05:35 1009 29.8 838 24.75 6.2 43.1 87 4.1 39.4
05:40 1009 29.8 838 24.75 6.2 43.1 85 3.9 39
05:45 1009 29.8 838 24.75 6.2 43.2 85 3.8 38.9
05:50 1009 29.8 838 24.75 6.2 43.2 85 3.9 39
05:55 1009 29.8 838 24.75 6.1 43 86 3.9 39.1
06:00 1009 29.8 838 24.75 6.1 43 86 3.9 39.1
06:05 1009 29.8 838 24.75 6.1 43.1 85 3.7 38.7
06:10 1009 29.8 838 24.75 6.2 43.2 85 3.8 38.9
06:15 1009 29.8 838 24.75 6.2 43.2 85 3.9 39
06:20 1009 29.8 838 24.75 6.2 43.1 85 3.8 38.8
06:25 1009 29.8 838 24.75 6.2 43.2 84 3.6 38.6
06:30 1009 29.8 838 24.75 6.3 43.3 84 3.8 38.8
06:35 1009 29.8 838 24.75 6.3 43.3 84 3.8 38.9
06:40 1009 29.8 838 24.75 6.3 43.3 84 3.7 38.7
06:45 1009 29.8 838 24.75 6.3 43.4 84 3.8 38.8
06:50 1009 29.8 838 24.75 6.3 43.4 82 3.6 38.5
06:55 1009 29.8 838 24.75 6.4 43.5 83 3.6 38.6
07:00 1009 29.8 838 24.75 6.4 43.5 84 3.8 38.9
07:05 1009 29.8 838 24.75 6.4 43.6 83 3.8 38.8
07:10 1009 29.8 838 24.75 6.5 43.7 83 3.9 39
07:15 1009 29.8 838 24.75 6.5 43.7 84 4 39.2
07:20 1009 29.8 838 24.75 6.5 43.7 84 4 39.3
07:25 1009 29.8 838 24.75 6.5 43.7 84 4 39.3
07:30 1009 29.8 838 24.75 6.6 43.9 84 4 39.3
07:35 1009 29.8 838 24.75 6.7 44.1 83 4.1 39.3
07:40 1009 29.8 838 24.75 6.8 44.2 83 4.1 39.4
07:45 1009 29.8 838 24.75 6.9 44.5 82 4 39.3
07:50 1009 29.8 838 24.75 7 44.5 82 4.1 39.4
07:55 1009 29.8 838 24.75 7.1 44.8 81 4.2 39.5
08:00 1009 29.8 838 24.75 7.3 45.1 81 4.3 39.7
08:05 1009 29.8 838 24.75 7.4 45.2 81 4.3 39.8
08:10 1009 29.8 838 24.75 7.4 45.4 82 4.5 40.1
08:15 1009 29.8 838 24.75 7.6 45.6 81 4.6 40.2
08:20 1009 29.8 838 24.75 7.7 45.9 81 4.7 40.5
08:25 1009 29.8 838 24.75 7.8 46.1 80 4.6 40.2
08:30 1009 29.8 838 24.75 7.9 46.3 80 4.6 40.4
08:35 1009 29.8 838 24.75 8 46.4 80 4.7 40.5
08:40 1009 29.8 838 24.75 8.1 46.5 84 5.6 42.1
08:45 1009 29.8 838 24.75 8.1 46.5 89 6.4 43.5
08:50 1009 29.8 838 24.75 7.9 46.3 87 6 42.8
08:55 1009 29.8 838 24.75 7.8 46.1 88 6 42.8
09:00 1009 29.8 839 24.78 7.9 46.1 87 5.8 42.5
09:05 1009 29.8 839 24.78 7.7 45.9 88 5.8 42.5
09:10 1009 29.8 839 24.78 7.5 45.6 89 5.9 42.7
09:15 1009 29.8 839 24.78 7.6 45.6 90 6.1 42.9
09:20 1009 29.8 839 24.78 7.6 45.6 91 6.1 43
09:25 1009 29.8 839 24.78 7.3 45.1 92 6.1 42.9
09:30 1009 29.8 839 24.78 7.2 45 91 5.9 42.7
09:35 1009 29.8 839 24.78 7.2 44.9 92 5.9 42.7
09:40 1009 29.8 839 24.78 7.2 45 92 5.9 42.7
09:45 1009 29.8 839 24.78 7.3 45.1 91 5.9 42.7
09:50 1010 29.83 839 24.78 7.3 45.1 91 5.9 42.7
09:55 1010 29.83 839 24.78 7.1 44.7 92 5.8 42.5
10:00 1010 29.83 839 24.78 7 44.5 92 5.7 42.2
10:05 1010 29.83 839 24.78 6.9 44.4 92 5.8 42.4
10:10 1010 29.83 839 24.78 6.9 44.4 92 5.7 42.2
10:15 1010 29.83 839 24.78 6.8 44.2 92 5.5 41.9
10:20 1010 29.83 839 24.78 6.7 44 92 5.5 41.9
10:25 1010 29.83 839 24.78 6.7 44 92 5.5 41.9
10:30 1010 29.83 839 24.78 6.7 44 91 5.3 41.6
10:35 1010 29.83 839 24.78 6.7 44 91 5.3 41.6
10:40 1010 29.83 839 24.78 6.7 44.1 90 5.1 41.3
10:45 1010 29.83 839 24.78 6.7 44.1 90 5.2 41.4
10:50 1010 29.83 839 24.78 6.7 44 90 5.1 41.2
10:55 1010 29.83 839 24.78 6.7 44 90 5.2 41.4
11:00 1010 29.83 839 24.78 6.5 43.7 91 5.1 41.2
11:05 1010 29.83 839 24.78 6.5 43.7 91 5.2 41.4
11:10 1010 29.83 839 24.78 6.5 43.7 90 5 41
11:15 1010 29.83 839 24.78 6.5 43.6 90 4.9 40.8
11:20 1010 29.83 839 24.78 6.4 43.6 89 4.7 40.5
11:25 1010 29.83 839 24.78 6.4 43.5 88 4.6 40.3
11:30 1010 29.83 839 24.78 6.4 43.5 89 4.6 40.4
11:35 1010 29.83 839 24.78 6.4 43.6 89 4.7 40.5
11:40 1010 29.83 839 24.78 6.4 43.5 89 4.7 40.5
11:45 1010 29.83 839 24.78 6.2 43.2 90 4.8 40.6
11:50 1010 29.83 840 24.81 6.2 43.1 91 4.8 40.7
11:55 1010 29.83 840 24.81 6 42.9 92 4.9 40.7
12:00 1010 29.83 840 24.81 6 42.9 93 5 40.9
12:05 1011 29.85 840 24.81 5.9 42.7 93 4.8 40.7
12:10 1011 29.85 840 24.81 5.8 42.5 93 4.8 40.6
12:15 1011 29.85 840 24.81 5.8 42.5 91 4.5 40.1
12:20 1011 29.85 840 24.81 5.4 41.7 92 4.2 39.5
12:25 1011 29.85 840 24.81 5.1 41.2 93 4.1 39.4
12:30 1011 29.85 840 24.81 5.1 41.1 93 4 39.3
12:35 1011 29.85 840 24.81 5 41 93 4 39.2
12:40 1011 29.85 840 24.81 4.8 40.6 93 3.8 38.8
12:45 1011 29.85 840 24.81 4.5 40.1 94 3.5 38.4
12:50 1011 29.85 840 24.81 4.3 39.8 94 3.4 38.1
12:55 1011 29.85 840 24.81 4.3 39.7 92 3.1 37.6
13:00 1011 29.85 841 24.83 4.2 39.5 92 3 37.4
13:05 1011 29.85 841 24.83 4.1 39.4 93 3 37.4
13:10 1012 29.88 841 24.83 4 39.2 94 3.1 37.5
13:15 1012 29.88 841 24.83 3.9 39.1 93 2.9 37.2
13:20 1012 29.88 841 24.83 3.8 38.8 93 2.7 36.9
13:25 1012 29.88 841 24.83 3.6 38.5 93 2.6 36.6
13:30 1012 29.88 841 24.83 3.5 38.2 94 2.5 36.6
13:35 1012 29.88 841 24.83 3.4 38.1 93 2.4 36.2
13:40 1012 29.88 841 24.83 3.3 38 92 2.2 36
13:45 1012 29.88 841 24.83 3.3 37.9 93 2.2 35.9
13:50 1012 29.88 842 24.86 3.3 37.9 93 2.2 35.9
13:55 1012 29.88 842 24.86 3.4 38.1 91 2.1 35.8
14:00 1013 29.91 842 24.86 3.5 38.3 91 2.2 35.9
14:05 1013 29.91 842 24.86 3.6 38.5 91 2.3 36.2
14:10 1013 29.91 842 24.86 3.7 38.6 91 2.3 36.2
14:15 1013 29.91 842 24.86 3.6 38.5 89 1.9 35.4
14:20 1013 29.91 842 24.86 3.8 38.8 88 2 35.7
14:25 1013 29.91 842 24.86 3.8 38.8 90 2.3 36.2
14:30 1013 29.91 842 24.86 3.5 38.4 92 2.3 36.2
14:35 1013 29.91 842 24.86 3.5 38.3 91 2.1 35.8
14:40 1013 29.91 842 24.86 3.3 38 92 2.1 35.8
14:45 1013 29.91 842 24.86 3.4 38 89 1.8 35.2
14:50 1013 29.91 842 24.86 3.2 37.8 92 2.1 35.8
14:55 1013 29.91 842 24.86 3.3 38 91 1.9 35.5
15:00 1013 29.91 843 24.89 3.1 37.6 92 1.9 35.5
15:05 1013 29.91 843 24.89 3 37.5 92 1.8 35.3
15:10 1013 29.91 843 24.89 2.8 37.1 93 1.8 35.3
15:15 1014 29.94 843 24.89 2.7 36.8 93 1.7 35.1
15:20 1014 29.94 843 24.89 2.7 36.9 94 1.8 35.3
15:25 1014 29.94 843 24.89 3 37.4 94 2.2 35.9
15:30 1014 29.94 843 24.89 3.2 37.8 92 2.1 35.7
15:35 1014 29.94 843 24.89 3 37.4 93 2 35.6
15:40 1014 29.94 843 24.89 2.8 37.1 92 1.6 34.9
15:45 1014 29.94 843 24.89 2.6 36.7 94 1.7 35
15:50 1014 29.94 843 24.89 2.4 36.3 93 1.4 34.4
15:55 1014 29.94 843 24.89 2 35.6 94 1.1 34
16:00 1014 29.94 843 24.89 1.8 35.3 94 1 33.8
16:05 1014 29.94 843 24.89 1.6 35 94 0.8 33.4
16:10 1014 29.94 843 24.89 1.2 34.2 95 0.5 32.9
16:15 1014 29.94 844 24.92 1 33.8 95 0.3 32.6
16:20 1014 29.94 844 24.92 0.9 33.6 95 0.2 32.4
16:25 1014 29.94 844 24.92 0.8 33.5 95 0.1 32.3
16:30 1014 29.94 844 24.92 0.8 33.5 96 0.2 32.4
16:35 1014 29.94 844 24.92 0.8 33.5 96 0.2 32.4
16:40 1014 29.94 844 24.92 0.8 33.4 96 0.2 32.4
16:45 1014 29.94 844 24.92 1 33.9 96 0.5 32.9
16:50 1014 29.94 844 24.92 1.3 34.4 94 0.5 32.9
16:55 1014 29.94 844 24.92 1.2 34.2 94 0.3 32.6
17:00 1015 29.97 844 24.92 1 33.8 96 0.4 32.7
17:05 1015 29.97 844 24.92 1.2 34.2 95 0.5 33
17:10 1015 29.97 844 24.92 1.2 34.2 95 0.5 32.9
17:15 1015 29.97 844 24.92 1.2 34.2 95 0.5 32.9
17:20 1015 29.97 844 24.92 1.4 34.5 94 0.5 33
17:25 1015 29.97 844 24.92 1.3 34.4 95 0.6 33
17:30 1015 29.97 844 24.92 1.1 34 96 0.5 32.8
17:35 1015 29.97 844 24.92 1 33.8 95 0.3 32.6
17:40 1015 29.97 844 24.92 1.1 34.1 95 0.4 32.7
17:45 1015 29.97 844 24.92 1.4 34.5 94 0.5 32.9
17:50 1015 29.97 844 24.92 1.6 34.9 93 0.5 33
17:55 1015 29.97 844 24.92 1.6 34.9 93 0.6 33
18:00 1015 29.97 844 24.92 1.6 35 93 0.6 33
18:05 1014 29.94 844 24.92 1.8 35.2 92 0.7 33.2
18:10 1015 29.97 844 24.92 1.9 35.4 92 0.8 33.4
18:15 1015 29.97 844 24.92 2 35.6 91 0.7 33.3
18:20 1015 29.97 844 24.92 2.1 35.8 90 0.6 33.1
18:25 1015 29.97 844 24.92 2.1 35.8 90 0.7 33.2
18:30 1015 29.97 844 24.92 2.2 36 90 0.7 33.3
18:35 1015 29.97 844 24.92 2.3 36.2 89 0.6 33.2
18:40 1015 29.97 844 24.92 2.4 36.4 89 0.8 33.4
18:45 1015 29.97 844 24.92 2.5 36.6 89 0.9 33.6
18:50 1015 29.97 844 24.92 2.6 36.7 89 1 33.7
18:55 1015 29.97 844 24.92 2.7 36.8 87 0.8 33.4
19:00 1015 29.97 844 24.92 2.8 37 88 1 33.9
19:05 1014 29.94 844 24.92 2.9 37.3 87 1 33.8
19:10 1014 29.94 844 24.92 2.9 37.2 88 1.1 33.9
19:15 1014 29.94 844 24.92 3 37.4 86 0.9 33.7
19:20 1014 29.94 844 24.92 3.1 37.5 86 0.9 33.7
19:25 1014 29.94 844 24.92 3.1 37.5 86 0.9 33.6
19:30 1015 29.97 844 24.92 3 37.5 86 0.9 33.7
19:35 1015 29.97 844 24.92 3.2 37.7 85 1 33.8
19:40 1015 29.97 844 24.92 3.2 37.8 85 1 33.7
19:45 1015 29.97 844 24.92 3.2 37.8 86 1.1 33.9
19:50 1015 29.97 844 24.92 3.2 37.8 85 0.9 33.7
19:55 1015 29.97 844 24.92 3.2 37.8 84 0.7 33.3
20:00 1015 29.97 844 24.92 3.3 37.9 85 1 33.8
20:05 1015 29.97 844 24.92 3.3 37.9 83 0.6 33.1
20:10 1015 29.97 844 24.92 3.3 38 84 0.8 33.5
20:15 1015 29.97 844 24.92 3.4 38.1 87 1.5 34.7
20:20 1015 29.97 844 24.92 3.3 38 88 1.4 34.6
20:25 1015 29.97 844 24.92 3.2 37.7 89 1.5 34.8
20:30 1015 29.97 844 24.92 3.1 37.6 91 1.7 35.1
20:35 1015 29.97 844 24.92 2.9 37.3 92 1.8 35.2
20:40 1015 29.97 844 24.92 3 37.4 93 2 35.6
20:45 1015 29.97 844 24.92 3 37.3 91 1.7 35
20:50 1015 29.97 844 24.92 2.9 37.2 90 1.5 34.7
20:55 1015 29.97 844 24.92 2.9 37.3 90 1.5 34.7
21:00 1015 29.97 844 24.92 3.1 37.5 87 1.1 34
21:05 1015 29.97 844 24.92 3.1 37.6 88 1.3 34.4
21:10 1015 29.97 844 24.92 3.1 37.5 86 1 33.8
21:15 1015 29.97 844 24.92 3.1 37.6 87 1.2 34.2
21:20 1015 29.97 844 24.92 3.1 37.6 88 1.3 34.3
21:25 1015 29.97 844 24.92 3.1 37.6 88 1.4 34.5
21:30 1015 29.97 844 24.92 3.1 37.6 90 1.6 34.9
21:35 1015 29.97 844 24.92 2.9 37.3 92 1.8 35.2
21:40 1015 29.97 844 24.92 2.8 37 93 1.8 35.2
21:45 1015 29.97 844 24.92 2.7 36.8 95 1.9 35.4
21:50 1015 29.97 844 24.92 2.6 36.7 95 1.9 35.4
21:55 1015 29.97 844 24.92 2.6 36.6 96 1.9 35.4
22:00 1015 29.97 844 24.92 2.6 36.6 95 1.9 35.4
22:05 1015 29.97 844 24.92 2.5 36.6 95 1.9 35.4
22:10 1015 29.97 845 24.95 2.5 36.5 96 1.9 35.3
22:15 1015 29.97 845 24.95 2.5 36.5 94 1.7 35
22:20 1015 29.97 845 24.95 2.5 36.4 94 1.7 35
22:25 1015 29.97 845 24.95 2.5 36.5 93 1.5 34.7
22:30 1015 29.97 845 24.95 2.4 36.2 91 1.1 34
22:35 1015 29.97 845 24.95 2.3 36.1 92 1.1 34.1
22:40 1015 29.97 845 24.95 2.2 36 92 1 33.8
22:45 1015 29.97 845 24.95 2.2 36 92 1.1 34
22:50 1015 29.97 845 24.95 2.3 36.1 92 1.1 33.9
22:55 1015 29.97 845 24.95 2.4 36.3 90 1 33.7
23:00 1015 29.97 845 24.95 2.4 36.2 91 1 33.9
23:05 1015 29.97 844 24.92 2.1 35.8 92 1 33.8
23:10 1015 29.97 844 24.92 2 35.7 93 1 33.9
23:15 1015 29.97 844 24.92 2.1 35.9 92 1 33.8
23:20 1015 29.97 844 24.92 2.2 35.9 91 0.9 33.7
23:25 1015 29.97 844 24.92 2.3 36.1 91 1 33.9
23:30 1015 29.97 844 24.92 2.4 36.3 89 0.7 33.3
23:35 1015 29.97 844 24.92 2.5 36.4 89 0.8 33.5
23:40 1015 29.97 844 24.92 2.5 36.5 89 0.8 33.5
23:45 1015 29.97 844 24.92 2.5 36.4 89 0.8 33.4
23:50 1015 29.97 844 24.92 2.5 36.6 89 1 33.7
23:55 1015 29.97 844 24.92 2.6 36.7 89 1 33.9
24:00 1015 29.97 844 24.92 2.6 36.7 91 1.2 34.2